Etusivu
METAR-TAF:

METAR-TAF

Lentoasemat :

Tsushima, Japani

Leveyspiiri: 34-17N, Pituuspiiri: 129-20E, korkeus merenpinnasta: 63 m

Tämänhetkinen sää

Tämä raportti tehtiin 44 minuuttia sitten, kello 23.00 UTC
Tuuli 1 kn eri suunnista
Lämpötila 14°C
Kosteus 100%
Ilmanpaine 1007 hPa
Näkyvyys: 3500 m
Muutamia pilviä 100 ft:n korkeudessa
Hajanaisia pilviä 200 ft:n korkeudessa
Hajonneita pilviä 400 ft:n korkeudessa
utua

METAR: RJDT 252300Z VRB01KT 3500 BR FEW001 SCT002 BKN004 14/14 Q1007

Aika: 08:44 (23:44 UTC)


TAF: puuttuu

Säähavainnot ja -ennusteet yli 4000 lentoasemalta (METAR- ja TAF-raportit).

Käytössä olevat sääasemat on merkitty karttaan keltaisilla ja punaisilla pisteillä.

Aseta hiiri pisteen päälle nähdäksesi sääaseman nimen.

Klikkaa sitten nähdäksesi säähavainnot ja -ennusteet.

Kartan vaihtaminen: klikkaa mustalla rastilla varustettuja vihreitä pisteitä, niin voit zoomata sisään; viivalla varustettua vihreää pistettä, niin voit zoomata ulos tai vihreitä nuolia, niin pääset viereisille kartoille.


METAR-TAF: